Time;durP1;ratioP1;P1;durP2;ratioP2;P2;SDS_P1;SDS_P2;PMS_P1;PMS_P2;Temp;Humidity;BMP_temperature;BMP_pressure;BME280_temperature;BME280_humidity;BME280_pressure;Samples;Min_cycle;Max_cycle;Signal;HPM_P1;HPM_P2
2023/05/19 00:00:20;;;;;;;28.67;17.65;;;;;;;6.46;97.83;102516.44;5092578;28;20166;-53
2023/05/19 00:02:46;;;;;;;22.73;16.80;;;;;;;6.46;98.27;102516.44;5093732;28;20516;-57
2023/05/19 00:05:13;;;;;;;21.67;16.02;;;;;;;6.52;97.50;102510.88;5093537;28;20442;-57
2023/05/19 00:07:42;;;;;;;28.98;17.42;;;;;;;6.47;98.37;102513.09;5092823;28;20032;-56
2023/05/19 00:10:08;;;;;;;23.50;17.13;;;;;;;6.46;99.37;102518.13;5093496;28;20472;-57
2023/05/19 00:12:35;;;;;;;25.23;16.88;;;;;;;6.37;100.00;102510.66;5093098;28;20054;-56
2023/05/19 00:15:01;;;;;;;24.20;16.37;;;;;;;6.39;100.00;102507.41;5093466;28;20035;-57
2023/05/19 00:17:26;;;;;;;25.45;16.27;;;;;;;6.37;100.00;102511.53;5093189;28;20032;-56
2023/05/19 00:19:53;;;;;;;24.42;15.25;;;;;;;6.42;100.00;102504.19;5092602;28;20063;-56
2023/05/19 00:22:18;;;;;;;22.70;16.50;;;;;;;6.38;100.00;102503.06;5093369;28;20024;-57
2023/05/19 00:24:44;;;;;;;24.85;15.60;;;;;;;6.34;100.00;102506.19;5093445;28;20034;-57
2023/05/19 00:27:09;;;;;;;27.05;16.85;;;;;;;6.32;100.00;102496.63;5092719;28;20729;-55
2023/05/19 00:29:35;;;;;;;28.10;17.02;;;;;;;6.23;100.00;102492.56;5093061;28;20523;-57
2023/05/19 00:32:00;;;;;;;28.13;16.23;;;;;;;6.23;100.00;102491.69;5093214;28;20099;-57
2023/05/19 00:34:25;;;;;;;24.95;16.30;;;;;;;6.19;100.00;102485.47;5091367;28;20035;-57
2023/05/19 00:36:50;;;;;;;24.42;15.77;;;;;;;6.20;100.00;102481.25;5093331;28;20036;-57
2023/05/19 00:39:16;;;;;;;23.30;16.20;;;;;;;6.19;100.00;102480.34;5093069;28;20021;-57
2023/05/19 00:41:41;;;;;;;23.85;16.05;;;;;;;6.18;100.00;102483.66;5092354;28;20469;-57
2023/05/19 00:44:06;;;;;;;30.10;16.60;;;;;;;6.16;100.00;102480.13;5093095;28;20020;-56
2023/05/19 00:46:32;;;;;;;22.67;15.10;;;;;;;6.17;100.00;102481.00;5092798;28;20577;-57
2023/05/19 00:48:57;;;;;;;27.23;15.23;;;;;;;6.11;100.00;102478.88;5092313;28;20032;-57
2023/05/19 00:51:25;;;;;;;24.50;15.35;;;;;;;6.13;100.00;102485.00;5092946;28;20024;-55
2023/05/19 00:53:51;;;;;;;22.77;15.60;;;;;;;6.21;100.00;102477.88;5093157;28;20036;-56
2023/05/19 00:56:17;;;;;;;23.23;14.30;;;;;;;6.19;100.00;102482.91;5092141;28;20372;-57
2023/05/19 00:58:43;;;;;;;21.00;14.23;;;;;;;6.29;100.00;102481.91;5092844;28;20486;-57
2023/05/19 01:01:08;;;;;;;25.17;13.93;;;;;;;6.27;100.00;102473.22;5092835;28;20060;-57
2023/05/19 01:03:34;;;;;;;23.65;13.95;;;;;;;6.26;100.00;102482.59;5091882;28;20391;-57
2023/05/19 01:06:03;;;;;;;23.92;13.02;;;;;;;6.22;100.00;102484.78;5092844;28;20460;-57
2023/05/19 01:08:30;;;;;;;22.55;13.48;;;;;;;6.21;100.00;102483.00;5092637;28;20336;-56
2023/05/19 01:10:56;;;;;;;20.13;13.27;;;;;;;6.24;100.00;102483.25;5092246;28;20024;-57
2023/05/19 01:13:22;;;;;;;25.05;13.93;;;;;;;6.28;100.00;102481.81;5092575;28;20274;-55
2023/05/19 01:15:58;;;;;;;24.55;14.27;;;;;;;6.26;100.00;102487.72;5092930;28;20020;-56
2023/05/19 01:19:03;;;;;;;24.65;13.90;;;;;;;6.28;100.00;102485.25;5092411;28;20044;-56
2023/05/19 01:21:43;;;;;;;22.25;14.68;;;;;;;6.23;100.00;102477.22;5092477;28;20024;-56
2023/05/19 01:24:31;;;;;;;24.08;13.48;;;;;;;6.21;100.00;102489.03;5092009;28;20099;-57
2023/05/19 01:27:11;;;;;;;28.35;13.75;;;;;;;6.24;100.00;102486.69;5092909;28;20032;-57
2023/05/19 01:29:54;;;;;;;22.13;13.23;;;;;;;6.19;100.00;102484.59;5092494;28;20115;-57
2023/05/19 01:32:21;;;;;;;22.45;13.77;;;;;;;6.14;100.00;102478.22;5091735;28;20054;-56
2023/05/19 01:34:49;;;;;;;24.15;13.93;;;;;;;6.09;100.00;102481.34;5092775;28;20057;-56
2023/05/19 01:37:16;;;;;;;25.75;13.40;;;;;;;6.02;100.00;102470.53;5091627;28;20401;-57
2023/05/19 01:39:43;;;;;;;25.35;15.40;;;;;;;6.05;100.00;102481.00;5092648;28;20031;-55
2023/05/19 01:42:10;;;;;;;22.67;14.33;;;;;;;5.98;100.00;102481.25;5092520;28;20055;-57
2023/05/19 01:44:36;;;;;;;23.23;13.68;;;;;;;5.96;100.00;102486.28;5091545;28;20472;-56
2023/05/19 01:47:02;;;;;;;24.83;14.30;;;;;;;5.96;100.00;102480.28;5095662;28;20042;-56
2023/05/19 01:49:28;;;;;;;21.83;12.57;;;;;;;5.96;100.00;102476.03;5095890;28;20032;-57
2023/05/19 01:51:53;;;;;;;19.15;13.85;;;;;;;5.88;100.00;102474.59;5095687;28;20020;-56
2023/05/19 01:54:18;;;;;;;18.98;13.70;;;;;;;5.88;100.00;102469.47;5096131;28;20414;-56
2023/05/19 01:57:06;;;;;;;18.70;13.65;;;;;;;5.84;100.00;102470.03;5096273;28;20032;-56
2023/05/19 01:59:43;;;;;;;23.33;13.88;;;;;;;5.76;100.00;102464.34;5095119;28;20067;-56
2023/05/19 02:02:33;;;;;;;25.88;15.20;;;;;;;5.81;100.00;102467.22;5096154;28;20039;-57
2023/05/19 02:05:28;;;;;;;20.00;13.65;;;;;;;5.80;100.00;102470.53;5096092;28;20024;-55
2023/05/19 02:08:10;;;;;;;22.30;14.25;;;;;;;5.77;100.00;102466.09;5095911;28;20066;-57
2023/05/19 02:10:39;;;;;;;20.83;13.50;;;;;;;5.66;100.00;102461.84;5095864;28;20119;-57
2023/05/19 02:13:07;;;;;;;21.00;13.40;;;;;;;5.65;100.00;102468.63;5095147;28;20089;-56
2023/05/19 02:15:43;;;;;;;21.08;14.07;;;;;;;5.64;100.00;102461.72;5095690;28;20081;-57
2023/05/19 02:18:10;;;;;;;25.33;14.38;;;;;;;5.60;100.00;102455.50;5095638;28;20101;-57
2023/05/19 02:20:37;;;;;;;21.48;14.60;;;;;;;5.60;100.00;102460.63;5094545;28;20410;-56
2023/05/19 02:23:02;;;;;;;21.00;14.95;;;;;;;5.56;100.00;102461.13;5095609;28;20406;-56
2023/05/19 02:25:28;;;;;;;25.08;14.70;;;;;;;5.55;100.00;102454.25;5095415;28;20020;-56
2023/05/19 02:27:53;;;;;;;19.90;14.85;;;;;;;5.52;100.00;102454.00;5094949;28;20107;-55
2023/05/19 02:30:18;;;;;;;23.92;14.65;;;;;;;5.51;100.00;102457.31;5095137;28;20024;-57
2023/05/19 02:32:45;;;;;;;24.92;15.15;;;;;;;5.44;100.00;102461.09;5095450;28;20024;-56
2023/05/19 02:35:10;;;;;;;24.42;15.98;;;;;;;5.43;100.00;102450.75;5095120;28;20016;-56
2023/05/19 02:37:36;;;;;;;24.23;15.18;;;;;;;5.44;100.00;102457.66;5095003;28;20077;-56
2023/05/19 02:40:01;;;;;;;22.33;14.68;;;;;;;5.48;100.00;102456.22;5095458;28;20026;-57
2023/05/19 02:42:26;;;;;;;24.30;16.30;;;;;;;5.39;100.00;102454.72;5094441;28;20081;-56
2023/05/19 02:44:53;;;;;;;23.55;14.98;;;;;;;5.39;100.00;102451.31;5095373;28;20022;-56
2023/05/19 02:47:18;;;;;;;26.13;15.00;;;;;;;5.34;100.00;102450.06;5094696;28;20379;-57
2023/05/19 02:49:44;;;;;;;23.98;15.77;;;;;;;5.32;100.00;102444.84;5094579;28;20028;-57
2023/05/19 02:52:09;;;;;;;22.38;14.45;;;;;;;5.25;100.00;102446.03;5095283;28;20107;-56
2023/05/19 02:54:34;;;;;;;26.45;14.93;;;;;;;5.24;100.00;102451.00;5094201;28;20407;-57
2023/05/19 02:57:00;;;;;;;25.52;15.90;;;;;;;5.21;100.00;102443.09;5094392;28;20418;-57
2023/05/19 02:59:25;;;;;;;21.15;14.88;;;;;;;5.19;100.00;102437.88;5094637;28;20514;-56
2023/05/19 03:01:55;;;;;;;24.05;15.57;;;;;;;5.21;100.00;102440.56;5094183;28;20036;-57
2023/05/19 03:04:20;;;;;;;22.05;15.05;;;;;;;5.18;100.00;102435.22;5094481;28;20055;-57
2023/05/19 03:06:46;;;;;;;26.08;15.20;;;;;;;5.11;100.00;102436.38;5095029;28;20074;-57
2023/05/19 03:09:15;;;;;;;20.95;15.10;;;;;;;5.10;100.00;102437.19;5093922;28;20028;-56
2023/05/19 03:11:40;;;;;;;24.63;16.38;;;;;;;5.10;100.00;102437.19;5094812;28;20093;-56
2023/05/19 03:14:08;;;;;;;22.90;15.77;;;;;;;5.14;100.00;102436.63;5094758;28;20379;-57
2023/05/19 03:16:33;;;;;;;25.38;15.63;;;;;;;5.08;100.00;102437.03;5093429;28;20020;-55
2023/05/19 03:18:58;;;;;;;26.00;15.25;;;;;;;4.99;100.00;102443.13;5094693;28;20099;-57
2023/05/19 03:21:24;;;;;;;26.60;15.45;;;;;;;4.98;100.00;102444.75;5094450;28;20464;-56
2023/05/19 03:23:50;;;;;;;21.38;15.25;;;;;;;4.93;100.00;102439.31;5093577;28;20103;-56
2023/05/19 03:26:15;;;;;;;24.17;15.48;;;;;;;4.90;100.00;102441.59;5094403;28;20024;-56
2023/05/19 03:28:40;;;;;;;25.15;15.77;;;;;;;4.91;100.00;102442.50;5094326;28;20384;-57
2023/05/19 03:31:06;;;;;;;23.98;15.38;;;;;;;4.89;100.00;102447.50;5093499;28;20020;-57
2023/05/19 03:33:31;;;;;;;25.88;16.08;;;;;;;4.91;100.00;102452.72;5093859;28;20112;-56
2023/05/19 03:35:56;;;;;;;21.83;15.60;;;;;;;4.86;100.00;102449.81;5094411;28;20482;-56
2023/05/19 03:38:22;;;;;;;23.35;15.40;;;;;;;4.79;100.00;102457.78;5093122;28;20103;-57
2023/05/19 03:40:47;;;;;;;23.83;15.68;;;;;;;4.77;100.00;102451.63;5094159;28;20020;-56
2023/05/19 03:43:13;;;;;;;23.33;17.08;;;;;;;4.81;100.00;102455.34;5094127;28;20039;-56
2023/05/19 03:45:38;;;;;;;26.77;16.58;;;;;;;4.81;100.00;102461.31;5093035;28;20046;-56
2023/05/19 03:48:04;;;;;;;23.33;15.95;;;;;;;4.82;100.00;102458.00;5093870;28;20020;-57
2023/05/19 03:50:30;;;;;;;22.55;16.27;;;;;;;4.73;100.00;102457.28;5093905;28;20043;-56
2023/05/19 03:52:56;;;;;;;23.92;15.40;;;;;;;4.77;100.00;102461.84;5093307;28;20416;-56
2023/05/19 03:55:21;;;;;;;26.05;15.63;;;;;;;4.80;100.00;102458.66;5093470;28;20028;-56
2023/05/19 03:57:47;;;;;;;23.38;15.95;;;;;;;4.80;100.00;102459.53;5093133;28;20016;-56
2023/05/19 04:00:13;;;;;;;23.42;15.52;;;;;;;4.84;100.00;102461.59;5093933;28;20047;-56
2023/05/19 04:02:39;;;;;;;24.40;16.15;;;;;;;4.77;100.00;102460.19;5093321;28;20016;-56
2023/05/19 04:05:05;;;;;;;19.13;15.38;;;;;;;4.75;100.00;102459.19;5093064;28;20104;-55
2023/05/19 04:07:31;;;;;;;23.95;16.23;;;;;;;4.80;100.00;102454.44;5093500;28;20016;-56
2023/05/19 04:09:56;;;;;;;28.75;17.50;;;;;;;4.91;100.00;102455.28;5093512;28;20027;-56
2023/05/19 04:12:22;;;;;;;24.60;17.17;;;;;;;4.91;100.00;102460.41;5092491;28;20091;-56
2023/05/19 04:14:47;;;;;;;27.65;17.42;;;;;;;4.91;100.00;102456.16;5093464;28;20434;-56
2023/05/19 04:17:13;;;;;;;26.77;17.35;;;;;;;4.95;100.00;102453.06;5093333;28;20131;-56
2023/05/19 04:19:39;;;;;;;24.27;17.38;;;;;;;4.96;100.00;102456.53;5092261;28;20028;-56
2023/05/19 04:22:04;;;;;;;23.58;16.92;;;;;;;4.93;100.00;102457.19;5093506;28;20073;-56
2023/05/19 04:24:30;;;;;;;24.45;16.90;;;;;;;5.04;100.00;102454.59;5093075;28;20107;-56
2023/05/19 04:26:55;;;;;;;22.85;16.33;;;;;;;4.95;100.00;102459.84;5092702;28;20020;-56
2023/05/19 04:29:22;;;;;;;22.55;16.55;;;;;;;4.99;100.00;102455.88;5092916;28;20074;-56
2023/05/19 04:31:48;;;;;;;23.80;17.02;;;;;;;4.99;100.00;102450.78;5093118;28;20016;-56
2023/05/19 04:34:13;;;;;;;25.63;16.88;;;;;;;5.06;100.00;102453.03;5092432;28;20077;-56
2023/05/19 04:36:38;;;;;;;23.98;17.60;;;;;;;5.10;100.00;102453.41;5093086;28;20062;-56
2023/05/19 04:39:07;;;;;;;24.95;16.83;;;;;;;5.16;100.00;102460.63;5093011;28;20020;-56
2023/05/19 04:41:33;;;;;;;25.55;17.60;;;;;;;5.20;100.00;102451.53;5092041;28;20142;-56
2023/05/19 04:43:58;;;;;;;27.20;18.13;;;;;;;5.27;100.00;102449.56;5093083;28;20050;-56
2023/05/19 04:46:25;;;;;;;26.85;18.52;;;;;;;5.33;100.00;102450.81;5092757;28;20036;-56
2023/05/19 04:48:52;;;;;;;26.05;18.48;;;;;;;5.37;100.00;102457.94;5092539;28;20029;-56
2023/05/19 04:51:18;;;;;;;26.63;17.42;;;;;;;5.43;100.00;102458.44;5092887;28;20024;-56
2023/05/19 04:53:44;;;;;;;29.60;18.05;;;;;;;5.53;100.00;102466.03;5093156;28;20028;-56
2023/05/19 04:56:12;;;;;;;25.75;18.38;;;;;;;5.62;100.00;102460.72;5092408;28;20024;-56
2023/05/19 04:58:37;;;;;;;25.05;18.30;;;;;;;5.69;100.00;102454.41;5092499;28;20069;-56
2023/05/19 05:01:03;;;;;;;27.23;18.15;;;;;;;5.81;100.00;102457.88;5092130;28;20028;-56
2023/05/19 05:03:29;;;;;;;27.30;18.58;;;;;;;5.88;100.00;102452.44;5092734;28;20024;-56
2023/05/19 05:05:55;;;;;;;26.25;19.00;;;;;;;5.95;100.00;102458.88;5093034;28;20058;-56
2023/05/19 05:08:22;;;;;;;27.17;18.70;;;;;;;6.13;100.00;102458.53;5091582;28;20747;-56
2023/05/19 05:10:51;;;;;;;26.35;18.33;;;;;;;6.12;100.00;102462.75;5092783;28;20481;-56
2023/05/19 05:13:21;;;;;;;28.45;18.92;;;;;;;6.21;100.00;102463.44;5092614;28;20027;-55
2023/05/19 05:15:46;;;;;;;24.65;17.60;;;;;;;6.26;100.00;102462.09;5091987;28;20036;-56
2023/05/19 05:18:13;;;;;;;25.40;17.70;;;;;;;6.37;100.00;102464.56;5092612;28;20047;-56
2023/05/19 05:20:40;;;;;;;27.65;18.42;;;;;;;6.45;100.00;102466.00;5093312;28;20495;-55
2023/05/19 05:23:08;;;;;;;27.60;17.98;;;;;;;6.50;100.00;102462.09;5095928;28;20069;-56
2023/05/19 05:25:33;;;;;;;;;;;;;;;6.57;100.00;102466.88;5096957;28;20035;-56
2023/05/19 05:28:03;;;;;;;24.48;16.42;;;;;;;6.68;100.00;102459.09;5096650;28;19987;-56
2023/05/19 05:30:29;;;;;;;28.17;17.83;;;;;;;6.83;100.00;102465.28;5096065;28;20020;-56
2023/05/19 05:32:54;;;;;;;24.60;17.42;;;;;;;6.88;100.00;102471.63;5096668;28;20054;-56
2023/05/19 05:35:22;;;;;;;23.65;16.55;;;;;;;6.97;100.00;102478.19;5096401;28;20095;-56
2023/05/19 05:37:47;;;;;;;;;;;;;;;7.01;100.00;102472.47;5096278;28;20032;-56
2023/05/19 05:40:13;;;;;;;23.37;15.23;;;;;;;7.13;100.00;102467.31;5096651;28;19912;-56
2023/05/19 05:42:38;;;;;;;22.25;14.38;;;;;;;7.23;100.00;102475.78;5096013;28;20644;-55
2023/05/19 05:45:04;;;;;;;23.17;13.90;;;;;;;7.31;100.00;102470.28;5095558;28;20016;-56
2023/05/19 05:47:30;;;;;;;19.80;13.90;;;;;;;7.39;100.00;102471.72;5095989;28;20522;-56
2023/05/19 05:49:55;;;;;;;17.80;13.40;;;;;;;7.53;100.00;102465.84;5096611;28;20050;-56
2023/05/19 05:52:24;;;;;;;20.23;14.00;;;;;;;7.62;100.00;102469.81;5095153;28;20536;-56
2023/05/19 05:54:50;;;;;;;18.77;13.00;;;;;;;7.74;100.00;102468.06;5096421;28;20020;-56
2023/05/19 05:57:15;;;;;;;17.67;13.32;;;;;;;7.85;100.00;102464.56;5095323;28;20081;-56
2023/05/19 05:59:41;;;;;;;23.15;13.57;;;;;;;7.95;100.00;102472.88;5096268;28;20016;-56
2023/05/19 06:02:07;;;;;;;19.52;11.93;;;;;;;8.06;100.00;102462.50;5095985;28;20111;-56
2023/05/19 06:04:32;;;;;;;19.42;12.73;;;;;;;8.20;100.00;102471.13;5095194;28;20063;-56
2023/05/19 06:07:00;;;;;;;19.25;12.77;;;;;;;8.41;100.00;102468.19;5096190;28;20099;-56
2023/05/19 06:09:25;;;;;;;19.45;11.85;;;;;;;8.49;100.00;102471.28;5095718;28;20052;-56
2023/05/19 06:11:51;;;;;;;15.15;11.40;;;;;;;8.63;100.00;102474.72;5095305;28;20051;-56
2023/05/19 06:14:17;;;;;;;18.45;12.18;;;;;;;8.75;100.00;102478.06;5095487;28;20111;-56
2023/05/19 06:16:42;;;;;;;20.45;11.00;;;;;;;8.85;100.00;102474.41;5095754;28;20022;-56
2023/05/19 06:19:08;;;;;;;20.08;11.52;;;;;;;9.00;100.00;102477.03;5095083;28;20020;-56
2023/05/19 06:21:33;;;;;;;21.13;11.43;;;;;;;9.07;100.00;102474.94;5095323;28;20028;-56
2023/05/19 06:23:59;;;;;;;19.50;11.68;;;;;;;9.20;100.00;102475.69;5095564;28;20379;-56
2023/05/19 06:26:25;;;;;;;18.67;11.02;;;;;;;9.31;100.00;102476.34;5094394;28;20482;-57
2023/05/19 06:28:51;;;;;;;15.43;10.52;;;;;;;9.46;100.00;102478.97;5095807;28;20044;-56
2023/05/19 06:31:16;;;;;;;15.23;10.73;;;;;;;9.55;100.00;102480.44;5095260;28;20051;-56
2023/05/19 06:33:41;;;;;;;14.77;10.98;;;;;;;9.63;100.00;102472.25;5093727;28;20035;-56
2023/05/19 06:36:08;;;;;;;20.38;10.05;;;;;;;9.70;100.00;102472.72;5095462;28;20031;-57
2023/05/19 06:38:34;;;;;;;19.38;10.68;;;;;;;9.79;100.00;102480.09;5095090;28;20051;-56
2023/05/19 06:40:59;;;;;;;16.20;9.63;;;;;;;9.87;99.38;102478.84;5094473;28;20028;-56
2023/05/19 06:43:24;;;;;;;15.68;10.73;;;;;;;9.93;99.84;102480.91;5095135;28;20035;-56
2023/05/19 06:45:50;;;;;;;19.63;9.93;;;;;;;9.94;97.73;102481.78;5095381;28;20379;-56
2023/05/19 06:48:15;;;;;;;15.90;10.02;;;;;;;9.99;97.72;102472.66;5094226;28;20024;-56
2023/05/19 06:50:40;;;;;;;17.33;9.75;;;;;;;10.01;96.59;102471.06;5095224;28;20035;-53
2023/05/19 06:53:06;;;;;;;17.60;9.27;;;;;;;10.13;97.28;102473.44;5095165;28;20384;-56
2023/05/19 06:55:31;;;;;;;14.25;9.68;;;;;;;10.21;96.82;102475.66;5093935;28;20032;-53
2023/05/19 06:57:56;;;;;;;15.63;9.00;;;;;;;10.31;95.78;102465.88;5095151;28;20016;-55
2023/05/19 07:00:22;;;;;;;15.27;9.40;;;;;;;10.42;94.48;102479.41;5094514;28;20050;-56
2023/05/19 07:02:47;;;;;;;17.25;9.10;;;;;;;10.55;93.81;102469.00;5094247;28;20032;-55
2023/05/19 07:05:12;;;;;;;12.90;8.75;;;;;;;10.56;91.28;102472.44;5094906;28;20058;-56
2023/05/19 07:07:38;;;;;;;16.35;9.27;;;;;;;10.64;91.83;102466.91;5093898;28;20468;-56
2023/05/19 07:10:03;;;;;;;13.77;8.85;;;;;;;10.70;91.58;102467.25;5094736;28;20027;-56
2023/05/19 07:12:29;;;;;;;14.63;9.15;;;;;;;10.78;89.83;102470.25;5094343;28;20020;-53
2023/05/19 07:14:54;;;;;;;14.63;8.75;;;;;;;10.92;91.67;102473.56;5094064;28;20024;-56
2023/05/19 07:17:20;;;;;;;16.17;8.38;;;;;;;11.00;90.33;102472.31;5094139;28;20426;-56
2023/05/19 07:19:45;;;;;;;15.38;8.45;;;;;;;11.11;88.05;102470.28;5094541;28;20089;-56
2023/05/19 07:22:10;;;;;;;11.52;7.90;;;;;;;11.31;87.95;102475.63;5093833;28;20034;-56
2023/05/19 07:24:35;;;;;;;16.58;8.57;;;;;;;11.37;86.10;102475.94;5094172;28;20070;-55
2023/05/19 07:27:01;;;;;;;13.90;8.40;;;;;;;11.61;87.14;102472.91;5094378;28;20024;-56
2023/05/19 07:29:26;;;;;;;13.55;7.70;;;;;;;11.69;85.36;102474.16;5093500;28;20376;-56
2023/05/19 07:31:56;;;;;;;17.92;7.75;;;;;;;11.81;84.97;102467.03;5094451;28;20036;-52
2023/05/19 07:34:21;;;;;;;15.13;8.20;;;;;;;12.01;85.65;102475.81;5094207;28;20016;-54
2023/05/19 07:36:47;;;;;;;15.93;7.65;;;;;;;12.24;84.34;102470.00;5093582;28;20020;-53
2023/05/19 07:39:12;;;;;;;14.20;6.78;;;;;;;12.38;79.94;102475.84;5094146;28;20388;-53
2023/05/19 07:41:37;;;;;;;9.82;6.40;;;;;;;12.52;77.47;102475.72;5093980;28;20379;-53
2023/05/19 07:44:06;;;;;;;16.88;6.20;;;;;;;12.60;76.74;102477.75;5092797;28;20482;-52
2023/05/19 07:46:32;;;;;;;14.80;7.38;;;;;;;12.69;76.52;102478.19;5093897;28;20031;-52
2023/05/19 07:48:57;;;;;;;12.52;6.15;;;;;;;12.81;76.31;102471.00;5094008;28;20471;-52
2023/05/19 07:51:22;;;;;;;14.82;5.80;;;;;;;12.86;72.32;102466.06;5093342;28;20039;-51
2023/05/19 07:53:48;;;;;;;10.77;5.22;;;;;;;12.97;71.44;102461.38;5093898;28;20027;-52
2023/05/19 07:56:13;;;;;;;12.52;5.72;;;;;;;13.13;72.63;102466.44;5094068;28;20024;-53
2023/05/19 07:58:38;;;;;;;11.90;5.50;;;;;;;13.21;71.26;102463.28;5092671;28;20379;-53
2023/05/19 08:01:04;;;;;;;14.80;6.00;;;;;;;13.33;69.58;102463.84;5093802;28;20035;-51
2023/05/19 08:03:29;;;;;;;10.43;5.10;;;;;;;13.43;67.00;102458.28;5093435;28;20357;-52
2023/05/19 08:05:55;;;;;;;11.07;4.90;;;;;;;13.47;68.17;102455.00;5092970;28;20024;-53
2023/05/19 08:08:20;;;;;;;12.85;5.75;;;;;;;13.58;68.08;102459.75;5093278;28;20020;-53
2023/05/19 08:10:46;;;;;;;12.52;5.63;;;;;;;13.73;68.95;102463.00;5093670;28;20024;-52
2023/05/19 08:13:11;;;;;;;10.88;5.05;;;;;;;13.81;67.65;102453.88;5092929;28;20544;-53
2023/05/19 08:15:36;;;;;;;12.18;5.40;;;;;;;13.93;68.84;102457.75;5093250;28;20020;-53
2023/05/19 08:18:03;;;;;;;12.48;5.18;;;;;;;14.19;64.97;102455.34;5092756;28;20044;-52
2023/05/19 08:20:29;;;;;;;9.52;4.20;;;;;;;14.37;64.80;102445.75;5093306;28;20110;-53
2023/05/19 08:22:56;;;;;;;11.23;4.95;;;;;;;14.45;64.35;102444.31;5093508;28;20448;-53
2023/05/19 08:25:21;;;;;;;12.63;5.43;;;;;;;14.53;63.83;102449.81;5092507;28;20111;-52
2023/05/19 08:27:46;;;;;;;11.30;5.13;;;;;;;14.59;63.86;102443.97;5093532;28;20031;-53
2023/05/19 08:30:12;;;;;;;9.95;5.00;;;;;;;14.91;64.02;102433.97;5093229;28;20467;-54
2023/05/19 08:32:37;;;;;;;11.85;5.05;;;;;;;15.30;64.27;102433.66;5092377;28;20020;-54
2023/05/19 08:35:03;;;;;;;12.07;5.00;;;;;;;15.53;61.14;102441.34;5093198;28;20038;-53
2023/05/19 08:37:28;;;;;;;11.93;4.75;;;;;;;15.74;60.28;102436.03;5092971;28;20475;-53
2023/05/19 08:39:53;;;;;;;11.40;5.00;;;;;;;15.76;57.37;102419.66;5092406;28;20020;-53
2023/05/19 08:42:19;;;;;;;12.75;5.00;;;;;;;15.73;56.96;102431.66;5092994;28;20052;-52
2023/05/19 08:44:44;;;;;;;10.57;4.55;;;;;;;15.78;55.49;102417.97;5092988;28;20434;-53
2023/05/19 08:47:12;;;;;;;10.15;3.70;;;;;;;16.02;56.42;102416.16;5092173;28;20076;-53
2023/05/19 08:49:43;;;;;;;10.68;4.22;;;;;;;16.56;57.19;102415.22;5092794;28;20028;-54
2023/05/19 08:52:33;;;;;;;8.40;3.88;;;;;;;16.82;55.79;102418.59;5092959;28;20043;-53
2023/05/19 08:55:11;;;;;;;9.02;3.92;;;;;;;17.13;53.15;102416.00;5091706;28;20073;-53
2023/05/19 08:57:37;;;;;;;11.27;4.05;;;;;;;17.41;53.93;102412.44;5092734;28;20035;-54
2023/05/19 09:00:12;;;;;;;8.75;3.97;;;;;;;17.67;52.26;102407.00;5092899;28;20031;-52
2023/05/19 09:02:39;;;;;;;9.90;4.38;;;;;;;17.68;50.14;102409.63;5092821;28;20031;-53
2023/05/19 09:05:05;;;;;;;9.15;3.58;;;;;;;17.69;46.71;102408.81;5093156;28;20050;-54
2023/05/19 09:07:33;;;;;;;9.57;3.17;;;;;;;17.67;46.82;102404.41;5091974;28;20028;-55
2023/05/19 09:10:00;;;;;;;10.38;3.40;;;;;;;17.82;47.18;102401.25;5093015;28;20076;-51
2023/05/19 09:12:25;;;;;;;9.88;3.05;;;;;;;17.82;46.48;102396.06;5092512;28;20028;-52
2023/05/19 09:14:51;;;;;;;8.40;2.40;;;;;;;18.12;45.45;102390.72;5091984;28;20499;-54
2023/05/19 09:17:17;;;;;;;9.63;2.53;;;;;;;18.33;42.84;102392.94;5092160;28;20055;-53
2023/05/19 09:19:48;;;;;;;8.05;2.30;;;;;;;17.95;39.71;102398.16;5092663;28;20032;-51
2023/05/19 09:22:14;;;;;;;7.95;2.30;;;;;;;18.14;43.82;102399.47;5092075;28;20028;-51
2023/05/19 09:24:40;;;;;;;9.02;2.20;;;;;;;18.22;42.22;102399.66;5092367;28;20028;-51
2023/05/19 09:27:05;;;;;;;7.88;2.28;;;;;;;18.13;41.47;102394.19;5092698;28;20435;-53
2023/05/19 09:29:31;;;;;;;7.40;2.08;;;;;;;18.05;41.10;102389.72;5091675;28;20020;-51
2023/05/19 09:32:00;;;;;;;6.97;2.10;;;;;;;17.93;42.12;102390.31;5092520;28;20463;-51
2023/05/19 09:34:26;;;;;;;8.60;2.38;;;;;;;17.88;40.73;102381.47;5092278;28;20382;-54
2023/05/19 09:36:52;;;;;;;8.75;2.78;;;;;;;17.89;42.50;102382.31;5092005;28;20095;-54
2023/05/19 09:39:20;;;;;;;9.87;2.53;;;;;;;17.83;42.67;102382.16;5092308;28;20024;-53
2023/05/19 09:41:46;;;;;;;9.60;2.75;;;;;;;17.87;41.43;102384.91;5092521;28;20020;-54
2023/05/19 09:44:32;;;;;;;6.40;2.38;;;;;;;17.80;40.96;102387.31;5091703;28;20073;-54
2023/05/19 09:46:58;;;;;;;7.53;2.30;;;;;;;17.93;42.16;102384.19;5092283;28;20032;-54
2023/05/19 09:49:29;;;;;;;9.70;2.90;;;;;;;18.11;43.31;102394.16;5091649;28;20341;-54
2023/05/19 09:51:55;;;;;;;8.55;3.17;;;;;;;18.27;41.88;102379.75;5092702;28;20028;-54
2023/05/19 09:54:26;;;;;;;8.15;3.03;;;;;;;18.59;42.35;102387.38;5092019;28;20031;-54
2023/05/19 09:57:03;;;;;;;8.65;2.83;;;;;;;18.95;40.89;102386.41;5091629;28;20444;-54
2023/05/19 09:59:29;;;;;;;10.00;3.00;;;;;;;19.37;40.94;102389.81;5091986;28;20021;-54
2023/05/19 10:01:56;;;;;;;7.90;2.50;;;;;;;19.89;39.55;102381.97;5092492;28;20020;-54
2023/05/19 10:04:24;;;;;;;7.57;2.47;;;;;;;20.18;38.53;102381.50;5091195;28;20480;-54
2023/05/19 10:06:52;;;;;;;6.95;2.30;;;;;;;20.25;36.33;102383.34;5093495;28;20031;-54
2023/05/19 10:09:25;;;;;;;7.20;2.10;;;;;;;20.85;34.46;102389.41;5095580;28;20115;-54
2023/05/19 10:11:52;;;;;;;9.63;2.33;;;;;;;21.89;31.89;102379.88;5095194;28;20054;-54
2023/05/19 10:14:22;;;;;;;7.88;2.50;;;;;;;21.20;34.12;102388.88;5095782;28;20051;-52
2023/05/19 10:16:52;;;;;;;7.03;2.38;;;;;;;22.03;33.52;102374.72;5095792;28;20040;-54
2023/05/19 10:19:28;;;;;;;7.07;2.15;;;;;;;23.14;31.46;102385.72;5094805;28;20426;-54
2023/05/19 10:21:54;;;;;;;8.85;2.15;;;;;;;24.25;29.03;102382.16;5095656;28;20036;-54
2023/05/19 10:24:22;;;;;;;8.10;2.40;;;;;;;22.87;30.47;102383.88;5095457;28;20077;-54
2023/05/19 10:27:01;;;;;;;8.70;2.80;;;;;;;21.76;32.27;102383.28;5094907;28;20454;-54
2023/05/19 10:29:30;;;;;;;6.68;2.33;;;;;;;22.56;33.38;102381.13;5095330;28;20020;-54
2023/05/19 10:32:00;;;;;;;6.82;2.50;;;;;;;22.24;32.47;102387.06;5094718;28;20463;-54
2023/05/19 10:34:36;;;;;;;8.55;2.78;;;;;;;22.87;33.90;102378.63;5095041;28;20353;-53
2023/05/19 10:37:36;;;;;;;10.13;3.00;;;;;;;23.57;32.23;102376.97;5095602;28;20052;-54
2023/05/19 10:40:09;;;;;;;9.57;2.60;;;;;;;24.03;30.84;102367.28;5070942;28;20056;-54
2023/05/19 10:42:51;;;;;;;7.70;2.53;;;;;;;25.23;30.81;102365.81;5094912;28;20537;-54
2023/05/19 10:45:21;;;;;;;8.23;2.83;;;;;;;24.94;29.32;102365.16;5095112;28;20036;-54
2023/05/19 10:47:46;;;;;;;8.77;2.50;;;;;;;23.38;29.61;102368.19;5094603;28;20025;-53
2023/05/19 10:50:11;;;;;;;9.20;2.90;;;;;;;22.87;32.33;102370.72;5095088;28;20104;-54
2023/05/19 10:52:38;;;;;;;7.88;2.70;;;;;;;22.86;30.05;102361.09;5094356;28;20029;-54
2023/05/19 10:55:07;;;;;;;8.07;2.83;;;;;;;23.56;29.89;102359.41;5094952;28;20103;-54
2023/05/19 10:57:33;;;;;;;7.72;2.60;;;;;;;24.98;27.09;102352.81;5094909;28;20106;-54
2023/05/19 11:00:09;;;;;;;7.82;2.47;;;;;;;25.25;27.94;102349.09;5094360;28;20134;-53
2023/05/19 11:02:39;;;;;;;12.50;3.27;;;;;;;26.12;27.39;102353.63;5094816;28;20073;-53
2023/05/19 11:05:17;;;;;;;8.38;2.85;;;;;;;26.59;28.79;102351.25;5095120;28;20028;-55
2023/05/19 11:08:00;;;;;;;11.57;2.85;;;;;;;26.68;27.56;102353.78;5094110;28;20062;-55
2023/05/19 11:10:26;;;;;;;10.43;2.70;;;;;;;26.79;27.32;102348.34;5094740;28;20063;-55
2023/05/19 11:12:51;;;;;;;9.18;2.65;;;;;;;26.54;26.54;102343.38;5094932;28;20051;-56
2023/05/19 11:15:16;;;;;;;6.50;2.57;;;;;;;26.06;27.63;102345.75;5093720;28;20020;-55